createdAt,value
2023-03-18T00:02:10.042Z,95.50
2023-03-18T00:04:58.587Z,96.44
2023-03-18T00:07:47.720Z,96.00
2023-03-18T00:10:37.957Z,96.92
2023-03-18T00:13:27.249Z,97.28
2023-03-18T00:16:16.595Z,97.45
2023-03-18T00:19:05.421Z,98.11
2023-03-18T00:21:54.220Z,97.92
2023-03-18T00:24:42.701Z,98.44
2023-03-18T00:27:32.561Z,98.55
2023-03-18T00:30:22.074Z,98.32
2023-03-18T00:33:10.929Z,98.49
2023-03-18T00:35:59.731Z,98.26
2023-03-18T00:38:51.105Z,97.87
2023-03-18T00:41:39.907Z,96.99
2023-03-18T00:44:30.648Z,97.31
2023-03-18T00:47:19.150Z,98.14
2023-03-18T00:50:09.593Z,98.80
2023-03-18T00:52:58.094Z,98.46
2023-03-18T00:55:46.961Z,98.42
2023-03-18T00:58:36.883Z,98.77
2023-03-18T01:01:27.514Z,99.38
2023-03-18T01:04:16.071Z,99.13
2023-03-18T01:07:04.607Z,99.31
2023-03-18T01:09:54.712Z,100.00
2023-03-18T01:12:43.602Z,100.00
2023-03-18T01:15:32.072Z,100.00
2023-03-18T01:18:22.247Z,100.00
2023-03-18T01:21:12.001Z,100.00
2023-03-18T01:24:01.465Z,100.00
2023-03-18T01:26:50.517Z,100.00
2023-03-18T01:29:39.549Z,100.00
2023-03-18T01:32:28.831Z,100.00
2023-03-18T01:35:20.074Z,100.00
2023-03-18T01:38:09.783Z,100.00
2023-03-18T01:40:58.356Z,100.00
2023-03-18T01:43:47.344Z,100.00
2023-03-18T01:46:40.049Z,100.00
2023-03-18T01:49:30.354Z,100.00
2023-03-18T01:52:22.944Z,100.00
2023-03-18T01:55:15.104Z,100.00
2023-03-18T01:58:21.334Z,100.00
2023-03-18T02:01:14.105Z,100.00
2023-03-18T02:04:04.042Z,100.00
2023-03-18T02:06:52.544Z,100.00
2023-03-18T02:09:42.407Z,100.00
2023-03-18T02:12:35.479Z,100.00
2023-03-18T02:15:27.214Z,100.00
2023-03-18T02:18:19.917Z,100.00
2023-03-18T02:21:21.887Z,100.00
2023-03-18T02:24:17.278Z,100.00
2023-03-18T02:27:16.137Z,100.00
2023-03-18T02:30:07.880Z,100.00
2023-03-18T02:32:58.105Z,100.00
2023-03-18T02:35:48.450Z,100.00
2023-03-18T02:38:36.894Z,100.00
2023-03-18T02:41:28.546Z,100.00
2023-03-18T02:44:19.448Z,100.00
2023-03-18T02:47:11.576Z,100.00
2023-03-18T02:50:00.834Z,100.00
2023-03-18T02:52:49.304Z,100.00
2023-03-18T02:55:37.759Z,100.00
2023-03-18T02:58:26.274Z,100.00
2023-03-18T03:01:16.138Z,100.00
2023-03-18T03:04:05.198Z,100.00
2023-03-18T03:06:54.874Z,100.00
2023-03-18T03:09:43.379Z,100.00
2023-03-18T03:12:31.829Z,100.00
2023-03-18T03:15:20.530Z,100.00
2023-03-18T03:18:11.473Z,100.00
2023-03-18T03:20:59.979Z,100.00
2023-03-18T03:23:48.798Z,100.00
2023-03-18T03:26:37.527Z,100.00
2023-03-18T03:29:26.017Z,100.00
2023-03-18T03:32:14.574Z,100.00
2023-03-18T03:35:05.238Z,100.00
2023-03-18T03:37:53.790Z,100.00
2023-03-18T03:40:42.246Z,100.00
2023-03-18T03:43:30.726Z,100.00
2023-03-18T03:46:19.290Z,100.00
2023-03-18T03:49:07.851Z,100.00
2023-03-18T03:51:57.872Z,100.00
2023-03-18T03:54:46.429Z,100.00
2023-03-18T03:57:35.560Z,100.00
2023-03-18T04:00:24.603Z,100.00
2023-03-18T04:03:13.462Z,100.00
2023-03-18T04:06:02.055Z,100.00
2023-03-18T04:08:52.319Z,100.00
2023-03-18T04:11:41.067Z,100.00
2023-03-18T04:14:29.535Z,100.00
2023-03-18T04:17:17.983Z,100.00
2023-03-18T04:20:07.259Z,100.00
2023-03-18T04:22:55.770Z,100.00
2023-03-18T04:25:45.614Z,100.00
2023-03-18T04:28:34.169Z,100.00
2023-03-18T04:31:22.653Z,100.00
2023-03-18T04:34:11.190Z,100.00
2023-03-18T04:36:59.688Z,100.00
2023-03-18T04:39:48.618Z,100.00
2023-03-18T04:42:38.796Z,100.00
2023-03-18T04:45:27.271Z,100.00
2023-03-18T04:48:15.722Z,100.00
2023-03-18T04:51:04.380Z,100.00
2023-03-18T04:53:52.897Z,100.00
2023-03-18T04:56:41.588Z,100.00
2023-03-18T04:59:31.408Z,100.00
2023-03-18T05:02:20.461Z,100.00
2023-03-18T05:05:09.794Z,100.00
2023-03-18T05:07:58.415Z,100.00
2023-03-18T05:10:47.559Z,100.00
2023-03-18T05:13:36.047Z,100.00
2023-03-18T05:16:25.992Z,100.00
2023-03-18T05:19:15.549Z,100.00
2023-03-18T05:22:04.089Z,100.00
2023-03-18T05:24:52.628Z,100.00
2023-03-18T05:27:41.754Z,100.00
2023-03-18T05:30:30.374Z,100.00
2023-03-18T05:33:22.736Z,100.00
2023-03-18T05:36:11.782Z,100.00
2023-03-18T05:39:00.271Z,100.00
2023-03-18T05:41:48.731Z,100.00
2023-03-18T05:44:37.214Z,100.00
2023-03-18T05:47:25.902Z,100.00
2023-03-18T05:50:15.767Z,100.00
2023-03-18T05:53:05.473Z,100.00
2023-03-18T05:55:54.000Z,100.00
2023-03-18T05:58:42.529Z,100.00
2023-03-18T06:01:31.486Z,100.00
2023-03-18T06:04:20.240Z,100.00
2023-03-18T06:07:10.244Z,100.00
2023-03-18T06:09:58.778Z,100.00
2023-03-18T06:12:47.752Z,100.00
2023-03-18T06:15:36.349Z,100.00
2023-03-18T06:18:24.806Z,100.00
2023-03-18T06:21:13.597Z,100.00
2023-03-18T06:24:03.583Z,100.00
2023-03-18T06:26:52.570Z,100.00
2023-03-18T06:29:41.014Z,100.00
2023-03-18T06:32:30.095Z,100.00
2023-03-18T06:35:18.928Z,100.00
2023-03-18T06:38:08.722Z,100.00
2023-03-18T06:40:58.597Z,100.00
2023-03-18T06:43:50.566Z,100.00
2023-03-18T06:46:39.106Z,100.00
2023-03-18T06:49:27.659Z,100.00
2023-03-18T06:52:17.219Z,100.00
2023-03-18T06:55:07.039Z,100.00
2023-03-18T06:57:57.290Z,100.00
2023-03-18T07:00:47.632Z,100.00
2023-03-18T07:03:36.209Z,100.00
2023-03-18T07:06:24.652Z,100.00
2023-03-18T07:09:15.211Z,100.00
2023-03-18T07:12:03.765Z,96.59
2023-03-18T07:14:54.450Z,93.86
2023-03-18T07:17:43.229Z,89.49
2023-03-18T07:20:33.236Z,86.92
2023-03-18T07:23:21.955Z,82.66
2023-03-18T07:26:12.400Z,83.30
2023-03-18T07:29:00.901Z,83.38
2023-03-18T07:31:51.202Z,85.83
2023-03-18T07:34:39.761Z,87.46
2023-03-18T07:37:28.754Z,84.68
2023-03-18T07:40:17.712Z,82.23
2023-03-18T07:43:06.603Z,80.18
2023-03-18T07:45:55.622Z,77.01
2023-03-18T07:48:45.498Z,74.54
2023-03-18T07:51:34.074Z,71.76
2023-03-18T07:54:23.945Z,70.74
2023-03-18T07:57:12.926Z,69.08
2023-03-18T08:00:01.460Z,69.82
2023-03-18T08:02:49.990Z,67.64
2023-03-18T08:05:40.996Z,66.65
2023-03-18T08:08:29.647Z,64.96
2023-03-18T08:11:18.475Z,64.32
2023-03-18T08:14:07.236Z,62.61
2023-03-18T08:16:55.693Z,62.58
2023-03-18T08:19:46.961Z,61.80
2023-03-18T08:22:36.842Z,62.21
2023-03-18T08:25:25.421Z,60.46
2023-03-18T08:28:13.913Z,60.67
2023-03-18T08:31:03.397Z,60.34
2023-03-18T08:33:54.164Z,60.60
2023-03-18T08:36:43.217Z,59.61
2023-03-18T08:39:33.685Z,60.04
2023-03-18T08:42:22.234Z,59.86
2023-03-18T08:45:12.329Z,60.26
2023-03-18T08:48:00.777Z,60.90
2023-03-18T08:50:49.254Z,61.40
2023-03-18T08:53:37.834Z,61.16
2023-03-18T08:56:28.147Z,60.49
2023-03-18T08:59:17.725Z,59.89
2023-03-18T09:02:06.486Z,59.58
2023-03-18T09:04:55.815Z,58.91
2023-03-18T09:07:45.381Z,58.69
2023-03-18T09:10:34.284Z,58.28
2023-03-18T09:13:24.562Z,56.50
2023-03-18T09:16:13.136Z,55.29
2023-03-18T09:19:01.660Z,53.56
2023-03-18T09:21:50.189Z,51.69
2023-03-18T09:24:38.713Z,50.49
2023-03-18T09:27:27.235Z,48.14
2023-03-18T09:30:17.352Z,46.66
2023-03-18T09:33:06.826Z,45.00
2023-03-18T09:35:55.389Z,43.65
2023-03-18T09:38:43.945Z,44.37
2023-03-18T09:41:41.493Z,44.54
2023-03-18T09:44:33.485Z,42.95
2023-03-18T09:47:54.392Z,42.53
2023-03-18T09:50:49.055Z,41.70
2023-03-18T09:53:42.377Z,42.85
2023-03-18T09:56:34.449Z,41.85
2023-03-18T09:59:26.635Z,42.60
2023-03-18T10:02:23.299Z,42.76
2023-03-18T10:05:16.730Z,43.46
2023-03-18T10:08:09.107Z,42.77
2023-03-18T10:10:58.250Z,43.62
2023-03-18T10:13:53.278Z,42.30
2023-03-18T10:16:50.207Z,41.13
2023-03-18T10:19:39.222Z,40.87
2023-03-18T10:23:01.170Z,40.75
2023-03-18T10:25:53.537Z,40.39
2023-03-18T10:28:50.714Z,38.87
2023-03-18T10:31:54.546Z,40.81
2023-03-18T10:34:51.105Z,39.99
2023-03-18T10:37:49.220Z,39.00
2023-03-18T10:40:41.284Z,38.59
2023-03-18T10:43:31.714Z,37.97
2023-03-18T10:46:22.369Z,38.28
2023-03-18T10:49:14.129Z,37.51
2023-03-18T10:52:07.665Z,37.43
2023-03-18T10:54:56.132Z,36.03
2023-03-18T10:57:46.037Z,35.74
2023-03-18T11:00:35.599Z,36.46
2023-03-18T11:03:27.780Z,35.43
2023-03-18T11:06:20.083Z,36.88
2023-03-18T11:09:10.385Z,36.97
2023-03-18T11:12:02.888Z,35.70
2023-03-18T11:14:53.843Z,35.68
2023-03-18T11:17:43.324Z,36.13
2023-03-18T11:20:43.124Z,35.41
2023-03-18T11:23:46.180Z,36.30
2023-03-18T11:26:45.625Z,36.70
2023-03-18T11:29:35.672Z,35.62
2023-03-18T11:32:29.048Z,35.43
2023-03-18T11:35:21.587Z,34.67
2023-03-18T11:38:16.269Z,34.70
2023-03-18T11:41:08.631Z,35.95
2023-03-18T11:44:00.072Z,35.41
2023-03-18T11:46:52.305Z,36.16
2023-03-18T11:49:43.721Z,37.00
2023-03-18T11:52:39.494Z,38.70
2023-03-18T11:55:37.334Z,38.67
2023-03-18T11:58:49.718Z,38.50
2023-03-18T12:01:45.381Z,37.38
2023-03-18T12:04:56.595Z,36.81
2023-03-18T12:07:53.868Z,36.05
2023-03-18T12:10:48.226Z,36.11
2023-03-18T12:13:45.620Z,37.30
2023-03-18T12:16:53.174Z,35.92
2023-03-18T12:19:51.612Z,36.38
2023-03-18T12:23:03.293Z,36.29
2023-03-18T12:25:59.124Z,35.82
2023-03-18T12:29:18.575Z,36.68
2023-03-18T12:32:13.494Z,35.58
2023-03-18T12:35:20.693Z,35.12
2023-03-18T12:38:29.141Z,34.74
2023-03-18T12:41:21.421Z,35.09
2023-03-18T12:44:20.342Z,34.57
2023-03-18T12:47:12.089Z,36.22
2023-03-18T12:50:03.746Z,35.70
2023-03-18T12:52:55.261Z,35.82
2023-03-18T12:55:47.910Z,35.91
2023-03-18T12:58:39.268Z,35.21
2023-03-18T13:01:32.444Z,35.07
2023-03-18T13:04:22.679Z,36.25
2023-03-18T13:07:16.761Z,34.99
2023-03-18T13:10:14.072Z,35.01
2023-03-18T13:13:09.308Z,36.10
2023-03-18T13:15:57.801Z,35.84
2023-03-18T13:18:48.516Z,34.65
2023-03-18T13:21:41.304Z,34.59
2023-03-18T13:24:43.316Z,34.72
2023-03-18T13:27:40.614Z,34.35
2023-03-18T13:30:39.227Z,35.66
2023-03-18T13:33:41.260Z,36.67
2023-03-18T13:36:46.516Z,35.52
2023-03-18T13:39:44.692Z,34.74
2023-03-18T13:42:34.268Z,34.43
2023-03-18T13:45:26.525Z,35.06
2023-03-18T13:48:19.669Z,34.97
2023-03-18T13:51:20.453Z,36.32
2023-03-18T13:54:15.540Z,35.08
2023-03-18T13:57:18.013Z,35.50
2023-03-18T14:00:23.805Z,35.10
2023-03-18T14:03:21.780Z,33.91
2023-03-18T14:06:40.613Z,34.28
2023-03-18T14:09:36.829Z,34.36
2023-03-18T14:12:40.799Z,34.10
2023-03-18T14:15:47.279Z,35.22
2023-03-18T14:18:37.796Z,33.85
2023-03-18T14:21:28.864Z,34.63
2023-03-18T14:24:24.526Z,33.45
2023-03-18T14:27:18.712Z,33.92
2023-03-18T14:30:37.798Z,33.65
2023-03-18T14:33:33.157Z,34.57
2023-03-18T14:36:46.996Z,34.65
2023-03-18T14:39:39.113Z,35.08
2023-03-18T14:42:43.983Z,35.08
2023-03-18T14:45:35.233Z,34.64
2023-03-18T14:48:29.237Z,34.35
2023-03-18T14:51:19.453Z,34.90
2023-03-18T14:54:19.021Z,35.37
2023-03-18T14:57:08.204Z,34.88
2023-03-18T14:59:56.986Z,34.67
2023-03-18T15:02:46.401Z,34.63
2023-03-18T15:05:37.013Z,35.24
2023-03-18T15:08:37.433Z,36.15
2023-03-18T15:11:41.221Z,36.76
2023-03-18T15:14:31.414Z,36.03
2023-03-18T15:17:19.842Z,36.98
2023-03-18T15:20:13.876Z,38.66
2023-03-18T15:23:03.826Z,37.80
2023-03-18T15:25:52.708Z,36.44
2023-03-18T15:28:43.357Z,36.44
2023-03-18T15:31:33.770Z,36.65
2023-03-18T15:34:24.234Z,36.43
2023-03-18T15:37:26.790Z,36.87
2023-03-18T15:40:30.048Z,37.01
2023-03-18T15:43:22.059Z,37.02
2023-03-18T15:46:17.589Z,36.95
2023-03-18T15:49:07.444Z,37.44
2023-03-18T15:52:01.012Z,36.26
2023-03-18T15:54:49.529Z,36.86
2023-03-18T15:57:40.347Z,37.25
2023-03-18T16:00:28.838Z,37.28
2023-03-18T16:03:23.301Z,37.57
2023-03-18T16:06:11.854Z,36.22
2023-03-18T16:09:00.460Z,36.87
2023-03-18T16:11:54.598Z,37.32
2023-03-18T16:14:44.574Z,37.36
2023-03-18T16:17:33.473Z,38.18
2023-03-18T16:20:25.638Z,37.71
2023-03-18T16:23:15.598Z,37.96
2023-03-18T16:26:04.203Z,37.89
2023-03-18T16:28:52.957Z,37.80
2023-03-18T16:31:41.560Z,37.93
2023-03-18T16:34:30.181Z,37.88
2023-03-18T16:37:24.597Z,38.46
2023-03-18T16:40:17.122Z,38.45
2023-03-18T16:43:05.719Z,38.47
2023-03-18T16:45:54.968Z,38.77
2023-03-18T16:48:43.483Z,38.99
2023-03-18T16:51:32.646Z,39.56
2023-03-18T16:54:24.117Z,39.72
2023-03-18T16:57:17.250Z,40.06
2023-03-18T17:00:12.805Z,42.28
2023-03-18T17:03:02.205Z,43.36
2023-03-18T17:05:52.117Z,44.10
2023-03-18T17:08:40.914Z,43.10
2023-03-18T17:11:30.805Z,42.94
2023-03-18T17:14:30.540Z,44.44
2023-03-18T17:17:23.041Z,46.15
2023-03-18T17:20:17.216Z,46.52
2023-03-18T17:23:05.979Z,46.98
2023-03-18T17:25:56.755Z,47.24
2023-03-18T17:28:49.014Z,47.96
2023-03-18T17:31:37.623Z,48.46
2023-03-18T17:34:26.539Z,48.90
2023-03-18T17:37:15.025Z,50.57
2023-03-18T17:40:03.581Z,51.46
2023-03-18T17:42:52.722Z,52.35
2023-03-18T17:45:42.891Z,52.28
2023-03-18T17:48:32.377Z,52.56
2023-03-18T17:51:23.803Z,53.06
2023-03-18T17:54:19.713Z,53.26
2023-03-18T17:57:11.438Z,53.53
2023-03-18T17:59:59.897Z,53.34
2023-03-18T18:02:50.010Z,54.09
2023-03-18T18:05:38.477Z,54.40
2023-03-18T18:08:28.247Z,53.98
2023-03-18T18:11:20.844Z,53.39
2023-03-18T18:14:16.385Z,53.70
2023-03-18T18:17:13.818Z,54.92
2023-03-18T18:20:04.485Z,55.50
2023-03-18T18:22:55.012Z,55.43
2023-03-18T18:25:43.489Z,55.86
2023-03-18T18:28:34.174Z,55.67
2023-03-18T18:31:24.051Z,56.11
2023-03-18T18:34:13.224Z,56.07
2023-03-18T18:37:03.091Z,56.16
2023-03-18T18:39:54.221Z,56.82
2023-03-18T18:42:43.497Z,56.78
2023-03-18T18:45:33.135Z,58.20
2023-03-18T18:48:25.988Z,59.26
2023-03-18T18:51:18.219Z,58.88
2023-03-18T18:54:09.582Z,59.31
2023-03-18T18:56:58.500Z,58.82
2023-03-18T18:59:47.559Z,57.36
2023-03-18T19:02:37.414Z,58.78
2023-03-18T19:05:25.978Z,59.13
2023-03-18T19:08:22.529Z,59.38
2023-03-18T19:11:12.614Z,59.62
2023-03-18T19:14:18.476Z,59.79
2023-03-18T19:17:07.447Z,59.70
2023-03-18T19:19:55.908Z,59.45
2023-03-18T19:22:44.570Z,59.08
2023-03-18T19:25:33.972Z,59.15
2023-03-18T19:28:47.830Z,59.89
2023-03-18T19:31:41.270Z,60.51
2023-03-18T19:34:32.038Z,61.22
2023-03-18T19:37:23.575Z,61.68
2023-03-18T19:40:23.696Z,62.10
2023-03-18T19:43:17.489Z,62.12
2023-03-18T19:46:07.490Z,62.81
2023-03-18T19:48:56.011Z,62.67
2023-03-18T19:51:44.696Z,63.46
2023-03-18T19:54:34.314Z,63.67
2023-03-18T19:57:25.630Z,63.66
2023-03-18T20:00:22.117Z,64.20
2023-03-18T20:03:15.864Z,64.06
2023-03-18T20:06:04.856Z,63.54
2023-03-18T20:08:53.472Z,63.43
2023-03-18T20:11:42.169Z,63.68
2023-03-18T20:14:37.542Z,64.11
2023-03-18T20:17:36.341Z,64.39
2023-03-18T20:20:28.342Z,63.85
2023-03-18T20:23:20.594Z,64.04
2023-03-18T20:26:09.176Z,64.46
2023-03-18T20:28:58.667Z,64.65
2023-03-18T20:31:47.405Z,65.02
2023-03-18T20:34:38.180Z,65.55
2023-03-18T20:37:32.035Z,66.49
2023-03-18T20:40:22.832Z,67.59
2023-03-18T20:43:15.141Z,67.69
2023-03-18T20:46:04.350Z,67.60
2023-03-18T20:48:53.236Z,67.94
2023-03-18T20:51:41.797Z,67.31
2023-03-18T20:54:32.507Z,66.40
2023-03-18T20:57:21.046Z,66.75
2023-03-18T21:00:16.832Z,65.68
2023-03-18T21:03:05.328Z,65.90
2023-03-18T21:05:56.079Z,65.50
2023-03-18T21:08:44.645Z,65.36
2023-03-18T21:11:34.642Z,66.38
2023-03-18T21:14:23.152Z,65.77
2023-03-18T21:17:20.391Z,65.68
2023-03-18T21:20:22.074Z,65.79
2023-03-18T21:23:22.436Z,65.98
2023-03-18T21:26:11.247Z,66.39
2023-03-18T21:29:01.241Z,66.31
2023-03-18T21:31:49.831Z,66.57
2023-03-18T21:34:38.309Z,66.59
2023-03-18T21:37:28.196Z,66.58
2023-03-18T21:40:19.185Z,66.78
2023-03-18T21:43:24.256Z,67.71
2023-03-18T21:46:16.197Z,68.74
2023-03-18T21:49:04.700Z,69.46
2023-03-18T21:51:53.219Z,69.52
2023-03-18T21:54:41.706Z,69.57
2023-03-18T21:57:30.828Z,69.90
2023-03-18T22:00:21.141Z,70.03
2023-03-18T22:03:15.611Z,69.46
2023-03-18T22:06:04.253Z,69.99
2023-03-18T22:08:52.813Z,70.27
2023-03-18T22:11:41.358Z,70.05
2023-03-18T22:14:29.852Z,70.39
2023-03-18T22:17:23.636Z,70.32
2023-03-18T22:20:14.409Z,70.85
2023-03-18T22:23:03.320Z,70.54
2023-03-18T22:25:53.280Z,70.56
2023-03-18T22:28:41.853Z,70.94
2023-03-18T22:31:31.339Z,72.15
2023-03-18T22:34:23.544Z,72.91
2023-03-18T22:37:15.977Z,74.11
2023-03-18T22:40:05.503Z,74.79
2023-03-18T22:42:55.771Z,75.34
2023-03-18T22:45:44.245Z,75.65
2023-03-18T22:48:33.132Z,76.42
2023-03-18T22:51:25.424Z,76.78
2023-03-18T22:54:18.659Z,76.87
2023-03-18T22:57:07.224Z,78.57
2023-03-18T22:59:58.270Z,79.23
2023-03-18T23:02:46.896Z,79.49
2023-03-18T23:05:35.580Z,79.61
2023-03-18T23:08:24.839Z,79.39
2023-03-18T23:11:15.241Z,79.47
2023-03-18T23:14:05.121Z,78.72
2023-03-18T23:16:53.672Z,78.34
2023-03-18T23:19:42.194Z,78.31
2023-03-18T23:22:33.310Z,76.99
2023-03-18T23:25:21.823Z,76.75
2023-03-18T23:28:11.817Z,75.27
2023-03-18T23:31:00.290Z,74.84
2023-03-18T23:33:48.926Z,76.04
2023-03-18T23:36:37.538Z,77.18
2023-03-18T23:39:26.073Z,76.04
2023-03-18T23:42:15.114Z,79.09
2023-03-18T23:45:05.965Z,79.75
2023-03-18T23:47:54.608Z,78.22
2023-03-18T23:50:43.099Z,81.07
2023-03-18T23:53:31.904Z,77.39
2023-03-18T23:56:20.549Z,76.47
2023-03-18T23:59:09.006Z,75.93
